»·PEaware :: RXA480 KABQ-KLAS

RXA480 :: KABQ-KLAS

FLIGHT INFORMATION

Flight Status: Arrived
Operator:
Regional Express
More flights by this operator :: More flights under this callsign
Pilot: Richard S. (14671)
Aircraft: AIRBUS A320
(A320)
More flights by this aircraft type
Origin: KABQ Albuquerque Intl Sunport
United States
Destination: KLAS McCarran Intl
United States
More flights between these airports :: More routes between these airports
Route: +RDRNR3 GUP J72 PGS TYSSN5
File this flight plan on PilotEdge
Remarks:
Altitude:
(Current/Filed)
38,000ft
Speed:
(Current/Filed)
450kts
Departed: 30-Nov-17 05:09 PM
Arrived: 30-Nov-17 06:30 PM
Distance/Time
Traveled:
422nm/1:21
Distance/Time
To Go:
Arrived

Flight Plot

Page will automatically refresh every two minutes.

Flight plan parsing failed; only flown route is shown


Map Options




Map Legend


Flown Route
Filed Route
Departure Airport
Arrival Airport
Navaid (VOR, NDB)
Fix

Horizontal Profiles

Position Reports

Time Latitude Longitude Heading Altitude Ground
Speed
30-Nov-17 16:48 35.034916 -106.618773 44 5314ft 0kts
30-Nov-17 16:49 35.034916 -106.618773 44 5314ft 0kts
30-Nov-17 16:50 35.034916 -106.618773 44 5314ft 0kts
30-Nov-17 16:51 35.034916 -106.618773 44 5314ft 0kts
30-Nov-17 16:52 35.034916 -106.618773 44 5314ft 0kts
30-Nov-17 16:53 35.034916 -106.618773 44 5314ft 0kts
30-Nov-17 16:54 35.034916 -106.618773 44 5314ft 0kts
30-Nov-17 16:55 35.034916 -106.618773 44 5314ft 0kts
30-Nov-17 16:56 35.034916 -106.618773 44 5314ft 0kts
30-Nov-17 16:57 35.034916 -106.618773 44 5314ft 0kts
30-Nov-17 16:58 35.034916 -106.618773 44 5314ft 0kts
30-Nov-17 16:59 35.034916 -106.618773 44 5314ft 0kts
30-Nov-17 17:00 35.034916 -106.618773 44 5314ft 0kts
30-Nov-17 17:01 35.034916 -106.618773 44 5314ft 0kts
30-Nov-17 17:02 35.034916 -106.618773 44 5314ft 0kts
30-Nov-17 17:03 35.034916 -106.618773 44 5314ft 0kts
30-Nov-17 17:04 35.034916 -106.618773 44 5314ft 0kts
30-Nov-17 17:05 35.034916 -106.618773 44 5314ft 0kts
30-Nov-17 17:06 35.034916 -106.618773 44 5314ft 0kts
30-Nov-17 17:07 35.034916 -106.618773 44 5314ft 0kts
30-Nov-17 17:08 35.034920 -106.618768 44 5314ft 0kts
30-Nov-17 17:09 35.036381 -106.616606 66 5318ft 13kts
30-Nov-17 17:10 35.038250 -106.614288 319 5318ft 8kts
30-Nov-17 17:11 35.040673 -106.618224 308 5314ft 19kts
30-Nov-17 17:12 35.042727 -106.621321 330 5303ft 6kts
30-Nov-17 17:13 35.044337 -106.621065 78 5307ft 7kts
30-Nov-17 17:14 35.044116 -106.577177 91 6515ft 208kts
30-Nov-17 17:15 35.063667 -106.513826 20 9860ft 260kts
30-Nov-17 17:16 35.117999 -106.556691 273 13908ft 286kts
30-Nov-17 17:17 35.105658 -106.657792 255 16574ft 341kts
30-Nov-17 17:18 35.093764 -106.772874 274 19768ft 355kts
30-Nov-17 17:19 35.111051 -106.888840 278 22391ft 368kts
30-Nov-17 17:20 35.126746 -106.993266 278 24416ft 378kts
30-Nov-17 17:21 35.142602 -107.099315 278 26282ft 387kts
30-Nov-17 17:22 35.156577 -107.193347 278 27750ft 394kts
30-Nov-17 17:23 35.168303 -107.271881 278 28871ft 399kts
30-Nov-17 17:24 35.187739 -107.390750 278 30300ft 409kts
30-Nov-17 17:25 35.209611 -107.526234 278 31683ft 418kts
30-Nov-17 17:26 35.231501 -107.663025 278 33140ft 419kts
30-Nov-17 17:27 35.253227 -107.799898 278 34660ft 417kts
30-Nov-17 17:28 35.274737 -107.936414 278 36007ft 415kts
30-Nov-17 17:29 35.295907 -108.071794 278 37134ft 415kts
30-Nov-17 17:30 35.316945 -108.207361 278 38070ft 416kts
30-Nov-17 17:31 35.337796 -108.342766 278 38352ft 413kts
30-Nov-17 17:32 35.370278 -108.475832 285 38356ft 416kts
30-Nov-17 17:33 35.405632 -108.607912 285 38354ft 416kts
30-Nov-17 17:34 35.440358 -108.738214 284 38358ft 417kts
30-Nov-17 17:35 35.474255 -108.871776 278 38362ft 415kts
30-Nov-17 17:36 35.482961 -109.009857 271 38363ft 412kts
30-Nov-17 17:37 35.489778 -109.147583 271 38352ft 412kts
30-Nov-17 17:38 35.496496 -109.286359 271 38347ft 411kts
30-Nov-17 17:39 35.503016 -109.424341 271 38348ft 411kts
30-Nov-17 17:40 35.509414 -109.563099 271 38350ft 411kts
30-Nov-17 17:41 35.515385 -109.695837 271 38354ft 412kts
30-Nov-17 17:42 35.521464 -109.834481 271 38363ft 412kts
30-Nov-17 17:43 35.527344 -109.972206 271 38363ft 412kts
30-Nov-17 17:44 35.533079 -110.110216 271 38357ft 412kts
30-Nov-17 17:45 35.537730 -110.225116 271 38353ft 411kts
30-Nov-17 17:46 35.544026 -110.385196 271 38352ft 411kts
30-Nov-17 17:47 35.549274 -110.522875 271 38351ft 411kts
30-Nov-17 17:48 35.554343 -110.659942 270 38354ft 411kts
30-Nov-17 17:49 35.559126 -110.796876 270 38361ft 412kts
30-Nov-17 17:50 35.563976 -110.934401 271 38363ft 412kts
30-Nov-17 17:51 35.568956 -111.072125 271 38359ft 412kts
30-Nov-17 17:52 35.572856 -111.185858 270 37835ft 403kts
30-Nov-17 17:53 35.577340 -111.343316 270 34765ft 404kts
30-Nov-17 17:54 35.580720 -111.456238 270 32430ft 404kts
30-Nov-17 17:55 35.583992 -111.592776 270 30386ft 412kts
30-Nov-17 17:56 35.586725 -111.731446 269 30354ft 414kts
30-Nov-17 17:57 35.589311 -111.869870 269 30352ft 413kts
30-Nov-17 17:58 35.593508 -112.007769 270 30352ft 413kts
30-Nov-17 17:59 35.597819 -112.146828 270 30262ft 414kts
30-Nov-17 18:00 35.601950 -112.286334 270 28812ft 413kts
30-Nov-17 18:01 35.605614 -112.421928 270 27410ft 399kts
30-Nov-17 18:02 35.608372 -112.554841 270 26688ft 393kts
30-Nov-17 18:03 35.610977 -112.684944 269 25988ft 387kts
30-Nov-17 18:04 35.613437 -112.814443 269 25287ft 383kts
30-Nov-17 18:05 35.615720 -112.941782 269 24600ft 379kts
30-Nov-17 18:06 35.617859 -113.068481 269 23920ft 374kts
30-Nov-17 18:07 35.619838 -113.193490 269 23251ft 369kts
30-Nov-17 18:08 35.621578 -113.310731 269 22622ft 365kts
30-Nov-17 18:09 35.623268 -113.432718 269 21970ft 361kts
30-Nov-17 18:10 35.626209 -113.552776 275 21328ft 357kts
30-Nov-17 18:11 35.642603 -113.669047 277 20700ft 354kts
30-Nov-17 18:12 35.659251 -113.786115 277 20064ft 352kts
30-Nov-17 18:13 35.675617 -113.907491 286 18656ft 372kts
30-Nov-17 18:14 35.712763 -114.021855 289 17004ft 365kts
30-Nov-17 18:15 35.751360 -114.134285 289 15383ft 358kts
30-Nov-17 18:16 35.789018 -114.243185 289 13799ft 328kts
30-Nov-17 18:17 35.818810 -114.329586 288 12583ft 258kts
30-Nov-17 18:18 35.846225 -114.409243 288 11651ft 255kts
30-Nov-17 18:19 35.904672 -114.459227 330 11029ft 269kts
30-Nov-17 18:20 35.968177 -114.488912 328 10580ft 232kts
30-Nov-17 18:21 36.027081 -114.517511 316 10231ft 224kts
30-Nov-17 18:22 36.047614 -114.579008 278 10223ft 200kts
30-Nov-17 18:23 36.058705 -114.643206 277 9899ft 188kts
30-Nov-17 18:24 36.069082 -114.703272 277 8960ft 185kts
30-Nov-17 18:25 36.075060 -114.762295 267 8425ft 166kts
30-Nov-17 18:26 36.074325 -114.816361 265 7658ft 158kts
30-Nov-17 18:27 36.074299 -114.873222 266 6093ft 158kts
30-Nov-17 18:28 36.074149 -114.919531 264 5288ft 119kts
30-Nov-17 18:29 36.074025 -114.960706 264 4677ft 120kts
30-Nov-17 18:30 36.073914 -115.000830 265 4045ft 118kts
30-Nov-17 18:31 36.073826 -115.040938 265 3415ft 116kts
30-Nov-17 18:32 36.073749 -115.080387 265 2809ft 115kts
30-Nov-17 18:33 36.073682 -115.119777 265 2202ft 114kts
30-Nov-17 18:34 36.073502 -115.147154 266 2111ft 44kts
30-Nov-17 18:35 36.073814 -115.161074 318 2165ft 26kts
30-Nov-17 18:36 36.074871 -115.161295 358 2164ft 6kts
30-Nov-17 18:37 36.077366 -115.161298 1 2156ft 0kts
30-Nov-17 18:38 36.078014 -115.165656 269 2168ft 29kts
30-Nov-17 18:39 36.078557 -115.170924 13 2182ft 11kts
30-Nov-17 18:40 36.085425 -115.167388 305 2157ft 14kts

Navigation Log

Ident Type
Flight plan parsing failed, navigation log unavailable